Time;durP1;ratioP1;P1;durP2;ratioP2;P2;SDS_P1;SDS_P2;PMS_P1;PMS_P2;Temp;Humidity;BMP_temperature;BMP_pressure;BME280_temperature;BME280_humidity;BME280_pressure;Samples;Min_cycle;Max_cycle;Signal;HPM_P1;HPM_P2
2023/07/05 00:00:20;;;;;;;70.33;12.00;;;19.50;99.90;;;;;;5081171;28;20410;-83
2023/07/05 00:02:49;;;;;;;72.70;10.10;;;19.60;99.90;;;;;;5081312;28;20169;-83
2023/07/05 00:05:14;;;;;;;68.27;8.53;;;19.40;99.90;;;;;;5063104;28;20174;-83
2023/07/05 00:07:40;;;;;;;68.00;9.20;;;19.40;99.90;;;;;;5081224;28;20448;-83
2023/07/05 00:10:06;;;;;;;68.10;10.30;;;19.50;99.90;;;;;;5063881;28;20255;-83
2023/07/05 00:12:32;;;;;;;68.47;8.70;;;19.50;99.90;;;;;;5081193;28;20182;-83
2023/07/05 00:14:58;;;;;;;69.40;10.50;;;19.40;99.90;;;;;;5081373;28;20480;-83
2023/07/05 00:17:23;;;;;;;68.37;9.83;;;19.50;99.90;;;;;;5080586;28;20198;-83
2023/07/05 00:19:53;;;;;;;69.37;10.90;;;19.50;99.90;;;;;;5080630;28;20541;-83
2023/07/05 00:22:19;;;;;;;67.37;10.10;;;19.50;99.90;;;;;;5081112;28;20164;-83
2023/07/05 00:24:45;;;;;;;69.10;10.87;;;19.50;99.90;;;;;;5063569;28;20479;-83
2023/07/05 00:27:12;;;;;;;69.07;9.87;;;19.50;99.90;;;;;;5081355;28;20424;-83
2023/07/05 00:29:37;;;;;;;67.90;9.57;;;19.50;99.90;;;;;;5081468;28;20405;-83
2023/07/05 00:32:03;;;;;;;69.90;10.90;;;19.50;99.90;;;;;;5063081;28;20414;-83
2023/07/05 00:34:29;;;;;;;67.97;9.47;;;19.50;99.90;;;;;;5080767;28;20195;-83
2023/07/05 00:36:54;;;;;;;70.53;10.07;;;19.40;99.90;;;;;;5063099;28;20925;-83
2023/07/05 00:39:20;;;;;;;69.13;10.00;;;19.50;99.90;;;;;;5080424;28;20184;-83
2023/07/05 00:41:46;;;;;;;68.70;9.70;;;19.50;99.90;;;;;;5081475;28;20251;-83
2023/07/05 00:44:13;;;;;;;68.47;9.97;;;19.50;99.90;;;;;;5379241;22;20750;-83
2023/07/05 00:49:14;;;;;;;70.37;11.40;;;19.50;99.90;;;;;;5038125;28;20483;-83
2023/07/05 00:52:01;;;;;;;70.93;13.30;;;19.50;99.90;;;;;;5022655;28;20395;-83
2023/07/05 00:54:38;;;;;;;68.57;11.80;;;19.40;99.90;;;;;;5021587;28;20529;-82
2023/07/05 00:57:27;;;;;;;70.27;11.77;;;19.50;99.90;;;;;;5039542;28;20436;-82
2023/07/05 01:00:12;;;;;;;68.47;12.33;;;19.40;99.90;;;;;;5039923;28;20387;-83
2023/07/05 01:02:40;;;;;;;69.27;16.47;;;19.30;99.90;;;;;;5040562;28;20382;-83
2023/07/05 01:05:09;;;;;;;69.17;15.67;;;19.30;99.90;;;;;;5022130;28;20499;-83
2023/07/05 01:07:36;;;;;;;70.57;20.00;;;19.10;99.90;;;;;;5022139;28;20461;-83
2023/07/05 01:10:02;;;;;;;70.10;18.30;;;19.20;99.90;;;;;;5040564;28;20410;-83
2023/07/05 01:12:35;;;;;;;69.70;17.17;;;19.20;99.90;;;;;;5040060;28;20406;-83
2023/07/05 01:15:12;;;;;;;69.30;16.50;;;19.20;99.90;;;;;;5039963;28;20443;-83
2023/07/05 01:17:48;;;;;;;70.87;18.40;;;19.10;99.90;;;;;;5040123;28;20427;-83
2023/07/05 01:20:23;;;;;;;69.57;18.93;;;19.20;99.90;;;;;;5039813;28;20392;-83
2023/07/05 01:23:29;;;;;;;71.47;20.57;;;19.20;99.90;;;;;;5039820;28;20372;-83
2023/07/05 01:26:23;;;;;;;74.90;20.80;;;19.20;99.90;;;;;;5040882;28;20398;-83
2023/07/05 01:29:11;;;;;;;69.50;18.50;;;19.20;99.90;;;;;;5040930;28;20450;-83
2023/07/05 01:31:55;;;;;;;69.67;19.97;;;19.20;99.90;;;;;;5006031;28;20501;-83
2023/07/05 01:34:38;;;;;;;72.23;22.57;;;19.10;99.90;;;;;;5039962;28;20431;-83
2023/07/05 01:37:08;;;;;;;71.97;21.73;;;19.10;99.90;;;;;;5040945;28;20394;-83
2023/07/05 01:39:34;;;;;;;71.47;22.87;;;19.10;99.90;;;;;;5041092;28;20380;-83
2023/07/05 01:42:01;;;;;;;69.07;17.50;;;19.20;99.90;;;;;;5022847;28;20498;-83
2023/07/05 01:44:27;;;;;;;71.97;25.30;;;19.10;99.90;;;;;;5040241;28;20408;-83
2023/07/05 01:47:06;;;;;;;71.47;22.93;;;19.20;99.90;;;;;;5039982;28;20450;-83
2023/07/05 01:49:36;;;;;;;71.27;21.27;;;19.10;99.90;;;;;;5039843;28;20428;-83
2023/07/05 01:52:54;;;;;;;75.63;21.33;;;19.10;99.90;;;;;;5039478;28;20396;-83
2023/07/05 01:55:27;;;;;;;71.10;17.97;;;19.10;99.90;;;;;;4940718;29;20482;-82
2023/07/05 01:58:00;;;;;;;73.97;22.63;;;19.10;99.90;;;;;;4940341;29;20937;-81
2023/07/05 02:00:28;;;;;;;71.00;21.50;;;19.20;99.90;;;;;;4997101;28;20421;-81
2023/07/05 02:03:05;;;;;;;69.10;17.07;;;19.30;99.90;;;;;;5022123;28;20424;-81
2023/07/05 02:05:31;;;;;;;68.27;15.07;;;19.30;99.90;;;;;;5022562;28;20908;-81
2023/07/05 02:07:59;;;;;;;68.53;16.47;;;19.20;99.90;;;;;;5040053;28;20429;-81
2023/07/05 02:10:25;;;;;;;69.07;16.37;;;19.20;99.90;;;;;;5040021;28;20442;-81
2023/07/05 02:12:52;;;;;;;72.30;19.60;;;19.20;99.90;;;;;;5040046;28;20402;-81
2023/07/05 02:15:19;;;;;;;70.40;22.27;;;19.20;99.90;;;;;;5021924;28;20447;-81
2023/07/05 02:17:45;;;;;;;72.03;25.37;;;19.10;99.90;;;;;;5038758;28;20947;-81
2023/07/05 02:20:11;;;;;;;72.17;24.40;;;19.20;99.90;;;;;;5039385;28;20406;-81
2023/07/05 02:22:37;;;;;;;75.27;24.17;;;19.20;99.90;;;;;;5039113;28;20569;-81
2023/07/05 02:25:03;;;;;;;74.73;33.37;;;19.20;99.90;;;;;;5021085;28;20410;-81
2023/07/05 02:27:29;;;;;;;77.67;37.13;;;19.20;99.90;;;;;;5038606;28;20514;-80
2023/07/05 02:29:56;;;;;;;76.57;38.87;;;19.10;99.90;;;;;;5021643;28;20437;-81
2023/07/05 02:32:22;;;;;;;80.20;43.43;;;19.10;99.90;;;;;;5038852;28;20547;-81
2023/07/05 02:34:48;;;;;;;85.63;50.57;;;19.10;99.90;;;;;;5039198;28;20468;-82
2023/07/05 02:37:14;;;;;;;81.60;51.17;;;19.10;99.90;;;;;;5021726;28;20425;-82
2023/07/05 02:39:43;;;;;;;79.97;49.53;;;19.10;99.90;;;;;;5040287;28;20545;-82
2023/07/05 02:42:09;;;;;;;82.63;55.80;;;18.90;99.90;;;;;;5042958;28;20406;-81
2023/07/05 02:44:35;;;;;;;82.40;53.93;;;18.70;99.90;;;;;;5042526;28;20424;-81
2023/07/05 02:47:01;;;;;;;85.27;62.80;;;18.60;99.90;;;;;;5040869;28;20396;-81
2023/07/05 02:49:28;;;;;;;84.30;58.80;;;18.60;99.90;;;;;;5041048;28;20446;-80
2023/07/05 02:51:54;;;;;;;81.17;52.83;;;18.50;99.90;;;;;;5040810;28;20404;-80
2023/07/05 02:54:20;;;;;;;76.20;37.73;;;18.40;99.90;;;;;;5040775;28;20505;-81
2023/07/05 02:56:46;;;;;;;73.13;25.87;;;18.30;99.90;;;;;;5040953;28;20408;-81
2023/07/05 02:59:11;;;;;;;69.20;15.10;;;18.30;99.90;;;;;;5041500;28;20600;-80
2023/07/05 03:01:37;;;;;;;69.67;9.07;;;18.20;99.90;;;;;;5022964;28;20173;-81
2023/07/05 03:04:03;;;;;;;65.77;8.07;;;18.10;99.90;;;;;;5041183;28;20177;-81
2023/07/05 03:06:29;;;;;;;65.70;7.60;;;18.10;99.90;;;;;;5041863;28;20247;-81
2023/07/05 03:08:54;;;;;;;66.10;8.20;;;18.10;99.90;;;;;;5150330;22;20223;-79
2023/07/05 03:11:20;;;;;;;66.40;8.30;;;18.00;99.90;;;;;;5079219;28;20183;-79
2023/07/05 03:13:46;;;;;;;66.20;8.07;;;17.90;99.90;;;;;;5079378;28;20202;-79
2023/07/05 03:16:11;;;;;;;68.00;9.43;;;17.90;99.90;;;;;;5078570;28;20168;-79
2023/07/05 03:18:37;;;;;;;65.97;6.97;;;18.00;99.90;;;;;;5079167;28;20210;-79
2023/07/05 03:21:03;;;;;;;68.50;6.23;;;18.00;99.90;;;;;;5060986;28;20172;-78
2023/07/05 03:23:29;;;;;;;66.60;6.70;;;18.10;99.90;;;;;;5078701;28;20406;-79
2023/07/05 03:25:56;;;;;;;66.57;7.00;;;18.00;99.90;;;;;;5078442;28;20168;-79
2023/07/05 03:28:22;;;;;;;66.53;5.17;;;18.00;99.90;;;;;;5059893;28;20192;-78
2023/07/05 03:31:02;;;;;;;64.80;4.13;;;18.00;99.90;;;;;;5059574;28;20444;-78
2023/07/05 03:33:29;;;;;;;64.60;3.83;;;17.90;99.90;;;;;;5077519;28;20862;-78
2023/07/05 03:35:58;;;;;;;64.93;4.00;;;17.80;99.90;;;;;;5059408;28;20474;-78
2023/07/05 03:38:26;;;;;;;68.50;3.47;;;17.80;99.90;;;;;;5059773;28;20827;-79
2023/07/05 03:41:00;;;;;;;66.10;3.70;;;17.80;99.90;;;;;;5077038;28;20501;-78
2023/07/05 03:43:27;;;;;;;65.47;4.73;;;17.80;99.90;;;;;;5077733;28;20881;-79
2023/07/05 03:45:53;;;;;;;67.47;4.97;;;17.70;99.90;;;;;;5077098;28;20398;-78
2023/07/05 03:48:20;;;;;;;66.60;5.37;;;17.50;99.90;;;;;;5077055;28;20517;-78
2023/07/05 03:50:46;;;;;;;65.20;5.30;;;17.30;99.90;;;;;;5076455;28;20405;-78
2023/07/05 03:53:12;;;;;;;64.90;5.37;;;17.20;99.90;;;;;;5059337;28;20418;-79
2023/07/05 03:55:38;;;;;;;65.10;3.90;;;17.00;99.90;;;;;;5058992;28;20450;-79
2023/07/05 03:58:04;;;;;;;64.80;3.87;;;17.00;99.90;;;;;;5058683;28;20188;-78
2023/07/05 04:00:29;;;;;;;65.47;4.50;;;17.00;99.90;;;;;;5077693;28;20256;-79
2023/07/05 04:02:55;;;;;;;65.30;4.37;;;16.90;99.90;;;;;;5077313;28;20165;-78
2023/07/05 04:05:21;;;;;;;65.27;4.03;;;16.70;99.90;;;;;;5059701;28;20176;-79
2023/07/05 04:07:47;;;;;;;66.07;4.10;;;16.70;99.90;;;;;;5077545;28;20675;-78
2023/07/05 04:10:12;;;;;;;66.13;4.63;;;16.70;99.90;;;;;;5059298;28;20266;-78
2023/07/05 04:12:38;;;;;;;66.57;4.53;;;16.70;99.90;;;;;;5059815;28;20444;-78
2023/07/05 04:15:04;;;;;;;69.73;4.40;;;16.70;99.90;;;;;;5058852;28;20195;-78
2023/07/05 04:17:30;;;;;;;65.57;4.33;;;16.70;99.90;;;;;;5059325;28;20241;-78
2023/07/05 04:19:56;;;;;;;66.97;4.60;;;16.70;99.90;;;;;;5077574;28;20409;-78
2023/07/05 04:22:22;;;;;;;66.50;4.63;;;16.60;99.90;;;;;;5077342;28;20403;-78
2023/07/05 04:24:47;;;;;;;67.87;5.80;;;16.70;99.90;;;;;;5077363;28;20192;-78
2023/07/05 04:27:14;;;;;;;65.57;4.33;;;16.70;99.90;;;;;;5078422;28;20168;-78
2023/07/05 04:29:40;;;;;;;66.40;4.77;;;16.60;99.90;;;;;;5059469;28;20689;-78
2023/07/05 04:32:06;;;;;;;65.27;4.30;;;16.60;99.90;;;;;;5060372;28;20415;-78
2023/07/05 04:34:32;;;;;;;67.37;4.60;;;16.80;99.90;;;;;;5078232;28;20191;-78
2023/07/05 04:36:58;;;;;;;67.20;5.00;;;16.70;99.90;;;;;;5060330;28;20410;-78
2023/07/05 04:39:24;;;;;;;66.43;4.50;;;16.80;99.90;;;;;;5077404;28;20483;-79
2023/07/05 04:41:50;;;;;;;66.10;4.40;;;16.90;99.90;;;;;;5077848;28;20406;-79
2023/07/05 04:44:15;;;;;;;65.77;5.07;;;17.00;99.90;;;;;;5061304;28;20444;-79
2023/07/05 04:46:41;;;;;;;67.10;4.90;;;16.90;99.90;;;;;;5060781;28;20172;-78
2023/07/05 04:49:07;;;;;;;65.70;4.40;;;16.90;99.90;;;;;;5061005;28;20196;-79
2023/07/05 04:51:33;;;;;;;68.90;4.67;;;17.00;99.90;;;;;;5077291;28;20369;-78
2023/07/05 04:54:00;;;;;;;66.77;5.37;;;17.00;99.90;;;;;;5060067;28;20539;-78
2023/07/05 04:56:26;;;;;;;68.10;6.37;;;17.40;98.30;;;;;;5061486;28;20673;-78
2023/07/05 04:58:51;;;;;;;66.70;6.10;;;17.50;92.30;;;;;;5076443;28;20426;-81
2023/07/05 05:01:19;;;;;;;68.07;5.80;;;18.30;88.70;;;;;;5077140;28;20217;-80
2023/07/05 05:03:44;;;;;;;73.00;5.37;;;18.50;64.40;;;;;;5060011;28;20575;-80
2023/07/05 05:06:11;;;;;;;67.57;4.10;;;18.60;56.70;;;;;;5077373;28;20418;-80
2023/07/05 05:08:36;;;;;;;67.40;4.70;;;19.00;39.10;;;;;;5078062;28;20208;-80
2023/07/05 05:11:04;;;;;;;69.27;4.43;;;18.70;26.40;;;;;;5060206;28;20415;-80
2023/07/05 05:13:32;;;;;;;66.70;3.77;;;18.80;23.90;;;;;;5060864;28;20651;-79
2023/07/05 05:15:59;;;;;;;70.50;4.20;;;18.70;18.50;;;;;;5077664;28;20467;-79
2023/07/05 05:18:29;;;;;;;66.57;3.97;;;18.70;22.10;;;;;;5077499;28;20768;-79
2023/07/05 05:20:55;;;;;;;66.67;3.37;;;18.60;20.20;;;;;;5077669;28;20429;-80
2023/07/05 05:23:21;;;;;;;67.27;4.83;;;18.40;16.50;;;;;;5060974;28;20410;-80
2023/07/05 05:25:47;;;;;;;67.03;4.23;;;18.10;24.90;;;;;;5077988;28;20167;-79
2023/07/05 05:28:14;;;;;;;72.57;4.37;;;18.30;26.90;;;;;;5077688;28;20183;-80
2023/07/05 05:30:43;;;;;;;67.10;4.50;;;18.30;23.00;;;;;;5077339;28;20521;-79
2023/07/05 05:33:09;;;;;;;68.00;4.70;;;18.40;20.90;;;;;;5077966;28;20460;-79
2023/07/05 05:35:35;;;;;;;69.63;4.70;;;18.40;22.30;;;;;;5060652;28;20449;-79
2023/07/05 05:38:03;;;;;;;66.00;4.00;;;18.30;18.10;;;;;;5079138;28;20426;-79
2023/07/05 05:40:29;;;;;;;67.97;4.23;;;18.00;21.40;;;;;;5060028;28;20485;-79
2023/07/05 05:42:57;;;;;;;69.43;5.10;;;18.00;21.40;;;;;;5060439;28;20417;-79
2023/07/05 05:45:22;;;;;;;67.00;4.77;;;17.60;23.80;;;;;;5078900;28;20407;-79
2023/07/05 05:47:49;;;;;;;67.40;5.27;;;17.50;24.90;;;;;;5078814;28;20437;-79
2023/07/05 05:50:15;;;;;;;68.17;5.67;;;17.50;22.90;;;;;;5060767;28;20183;-79
2023/07/05 05:52:41;;;;;;;67.37;4.80;;;17.60;28.30;;;;;;5077230;28;20433;-79
2023/07/05 05:55:07;;;;;;;68.93;5.70;;;17.40;22.00;;;;;;5059371;28;20442;-79
2023/07/05 05:57:33;;;;;;;67.90;5.20;;;17.30;19.30;;;;;;5059334;28;20430;-79
2023/07/05 05:59:59;;;;;;;74.03;5.53;;;17.40;22.60;;;;;;5058981;28;20489;-80
2023/07/05 06:02:24;;;;;;;67.27;4.37;;;17.30;17.10;;;;;;5076227;28;20809;-80
2023/07/05 06:04:50;;;;;;;66.00;3.97;;;17.30;8.00;;;;;;5075839;28;20402;-80
2023/07/05 06:07:17;;;;;;;72.40;5.40;;;17.40;13.40;;;;;;5057465;28;20492;-79
2023/07/05 06:09:47;;;;;;;67.87;4.87;;;17.70;18.50;;;;;;5075963;28;20410;-81
2023/07/05 06:12:13;;;;;;;66.60;4.30;;;17.80;9.30;;;;;;5075904;28;20769;-80
2023/07/05 06:14:43;;;;;;;68.80;4.40;;;17.80;1.00;;;;;;5074767;28;20445;-81
2023/07/05 06:17:11;;;;;;;69.80;3.93;;;17.70;1.00;;;;;;5076060;28;20192;-80
2023/07/05 06:19:36;;;;;;;67.93;4.20;;;17.60;1.00;;;;;;5076422;28;20483;-80
2023/07/05 06:22:02;;;;;;;70.73;4.60;;;17.50;1.00;;;;;;5059987;28;20410;-80
2023/07/05 06:24:28;;;;;;;66.37;3.63;;;17.30;1.00;;;;;;5078730;28;20191;-80
2023/07/05 06:26:53;;;;;;;66.70;3.90;;;17.30;1.00;;;;;;5078650;28;20168;-79
2023/07/05 06:29:19;;;;;;;70.60;3.80;;;17.20;1.00;;;;;;5061371;28;20203;-79
2023/07/05 06:31:45;;;;;;;66.80;4.00;;;17.10;1.00;;;;;;5060771;28;20175;-80
2023/07/05 06:34:10;;;;;;;69.87;4.63;;;17.00;1.00;;;;;;5079254;28;20199;-79
2023/07/05 06:36:36;;;;;;;69.10;3.93;;;17.10;1.00;;;;;;5077926;28;20163;-81
2023/07/05 06:39:02;;;;;;;67.57;4.37;;;17.10;1.00;;;;;;5076296;28;20543;-81
2023/07/05 06:41:29;;;;;;;67.63;3.50;;;17.10;1.00;;;;;;5076248;28;20504;-80
2023/07/05 06:43:54;;;;;;;66.37;3.53;;;17.10;1.00;;;;;;5075966;28;20414;-80
2023/07/05 06:46:20;;;;;;;66.87;3.77;;;17.00;4.60;;;;;;5058303;28;20501;-80
2023/07/05 06:48:45;;;;;;;66.17;3.70;;;17.00;7.70;;;;;;5075702;28;20196;-80
2023/07/05 06:51:11;;;;;;;67.50;4.60;;;17.20;13.90;;;;;;5076181;28;20167;-80
2023/07/05 06:53:37;;;;;;;67.53;3.10;;;17.30;10.70;;;;;;5058080;28;20305;-79
2023/07/05 06:56:03;;;;;;;65.27;3.40;;;17.40;8.70;;;;;;5075799;28;20186;-79
2023/07/05 06:58:28;;;;;;;65.43;3.33;;;17.50;4.80;;;;;;5075426;28;20192;-80
2023/07/05 07:00:54;;;;;;;65.90;3.57;;;17.30;10.40;;;;;;5075557;28;20217;-80
2023/07/05 07:03:20;;;;;;;65.97;4.40;;;17.40;2.60;;;;;;5058031;28;20171;-80
2023/07/05 07:05:54;;;;;;;66.93;3.43;;;17.30;8.50;;;;;;5076130;28;20991;-81
2023/07/05 07:08:22;;;;;;;68.00;3.40;;;17.40;6.50;;;;;;5076609;28;20194;-81
2023/07/05 07:10:48;;;;;;;65.60;3.53;;;17.40;1.00;;;;;;5086054;28;20469;-80
2023/07/05 07:13:14;;;;;;;68.60;3.53;;;17.40;5.10;;;;;;5086299;28;20407;-80
2023/07/05 07:15:41;;;;;;;67.30;2.80;;;17.50;1.00;;;;;;5057611;28;20502;-79
2023/07/05 07:18:08;;;;;;;65.17;3.20;;;17.60;1.00;;;;;;5075773;28;20538;-79
2023/07/05 07:20:34;;;;;;;65.80;3.50;;;17.60;1.00;;;;;;5075418;28;20467;-80
2023/07/05 07:23:00;;;;;;;66.00;2.90;;;17.60;1.00;;;;;;5057277;28;20813;-79
2023/07/05 07:25:26;;;;;;;65.63;3.30;;;17.60;1.00;;;;;;5075899;28;20175;-79
2023/07/05 07:27:52;;;;;;;66.47;3.40;;;17.70;1.00;;;;;;5078521;28;20188;-80
2023/07/05 07:30:18;;;;;;;66.33;3.30;;;17.90;1.00;;;;;;5079149;28;20409;-79
2023/07/05 07:32:47;;;;;;;67.07;3.43;;;17.90;1.00;;;;;;5060828;28;20168;-79
2023/07/05 07:35:14;;;;;;;65.70;3.13;;;17.80;1.00;;;;;;5060526;28;20227;-80
2023/07/05 07:37:40;;;;;;;65.43;3.57;;;17.60;1.00;;;;;;5078924;28;20426;-79
2023/07/05 07:40:08;;;;;;;68.07;3.50;;;17.50;1.00;;;;;;5079071;28;20402;-79
2023/07/05 07:42:34;;;;;;;67.67;3.50;;;17.40;1.00;;;;;;5060582;28;20407;-79
2023/07/05 07:45:00;;;;;;;65.80;3.20;;;17.60;1.00;;;;;;5060751;28;20417;-79
2023/07/05 07:47:25;;;;;;;65.97;2.93;;;17.80;1.00;;;;;;5078352;28;20430;-79
2023/07/05 07:49:51;;;;;;;65.63;3.20;;;17.80;1.00;;;;;;5061311;28;20176;-79
2023/07/05 07:52:18;;;;;;;66.03;3.37;;;17.90;1.00;;;;;;5078831;28;20414;-79
2023/07/05 07:54:44;;;;;;;68.37;3.50;;;18.10;1.00;;;;;;5060923;28;20597;-80
2023/07/05 07:57:10;;;;;;;65.37;3.23;;;18.10;1.00;;;;;;5078112;28;20403;-78
2023/07/05 07:59:41;;;;;;;70.40;4.13;;;18.00;1.00;;;;;;5078745;28;20408;-79
2023/07/05 08:02:12;;;;;;;69.73;3.10;;;18.00;1.00;;;;;;5078968;28;20153;-79
2023/07/05 08:04:45;;;;;;;64.77;2.73;;;17.90;1.00;;;;;;5060244;28;20473;-80
2023/07/05 08:07:11;;;;;;;65.00;3.50;;;17.90;1.00;;;;;;5078432;28;20461;-79
2023/07/05 08:09:37;;;;;;;65.40;2.93;;;17.90;1.00;;;;;;5081247;28;20406;-79
2023/07/05 08:12:03;;;;;;;65.17;3.00;;;18.10;1.00;;;;;;5065464;28;20414;-79
2023/07/05 08:14:29;;;;;;;67.00;3.40;;;18.00;1.00;;;;;;5083137;28;20192;-78
2023/07/05 08:16:55;;;;;;;65.73;2.90;;;18.10;1.00;;;;;;5066821;28;20463;-78
2023/07/05 08:19:20;;;;;;;65.33;3.60;;;18.10;1.00;;;;;;5066444;28;20188;-79
2023/07/05 08:21:47;;;;;;;64.60;3.00;;;18.10;1.00;;;;;;5083121;28;20278;-79
2023/07/05 08:24:14;;;;;;;69.03;3.50;;;18.20;1.00;;;;;;5083193;28;20406;-80
2023/07/05 08:26:40;;;;;;;68.00;3.23;;;18.30;1.00;;;;;;5082483;28;20417;-78
2023/07/05 08:29:08;;;;;;;65.50;3.23;;;18.20;1.00;;;;;;5082785;28;20794;-79
2023/07/05 08:31:34;;;;;;;67.57;3.00;;;18.10;1.00;;;;;;5063925;28;20419;-78
2023/07/05 08:34:01;;;;;;;64.57;3.20;;;18.20;1.00;;;;;;5082525;28;20805;-79
2023/07/05 08:36:29;;;;;;;66.40;3.17;;;18.10;1.00;;;;;;5083240;28;20410;-79
2023/07/05 08:38:56;;;;;;;65.50;3.13;;;18.10;1.00;;;;;;5081887;28;20509;-79
2023/07/05 08:41:40;;;;;;;67.00;3.07;;;18.10;1.00;;;;;;5064172;28;20403;-78
2023/07/05 08:44:15;;;;;;;64.60;2.73;;;18.00;1.00;;;;;;5063595;28;20861;-79
2023/07/05 08:46:43;;;;;;;64.47;2.60;;;18.10;1.00;;;;;;5063745;28;20422;-78
2023/07/05 08:49:55;;;;;;;64.50;2.93;;;18.10;1.00;;;;;;5080282;28;20422;-79
2023/07/05 08:52:25;;;;;;;68.80;3.10;;;18.20;1.00;;;;;;5081071;28;20418;-79
2023/07/05 08:54:57;;;;;;;77.07;4.10;;;18.30;1.00;;;;;;5081955;28;20434;-79
2023/07/05 08:58:05;;;;;;;73.17;3.93;;;18.40;1.00;;;;;;5064700;28;20477;-79
2023/07/05 09:00:58;;;;;;;65.53;3.93;;;18.40;1.00;;;;;;4980944;28;20509;-80
2023/07/05 09:03:28;;;;;;;66.90;3.90;;;18.30;1.00;;;;;;5073809;28;20466;-79
2023/07/05 09:06:09;;;;;;;68.07;3.63;;;18.50;1.00;;;;;;5081309;28;20410;-80
2023/07/05 09:08:40;;;;;;;66.33;3.77;;;18.60;1.00;;;;;;5080047;28;20454;-78
2023/07/05 09:11:35;;;;;;;67.70;5.47;;;18.70;1.00;;;;;;5082795;28;20406;-79
2023/07/05 09:14:46;;;;;;;66.00;5.17;;;18.90;1.00;;;;;;5066328;28;20477;-80
2023/07/05 09:17:17;;;;;;;70.27;5.50;;;19.00;1.00;;;;;;5083577;28;20390;-80
2023/07/05 09:20:20;;;;;;;66.90;4.53;;;19.10;1.00;;;;;;5084015;28;20378;-79
2023/07/05 09:22:47;;;;;;;69.23;5.77;;;19.10;1.00;;;;;;5083475;28;20381;-80
2023/07/05 09:25:17;;;;;;;69.33;4.73;;;19.20;1.00;;;;;;5083606;28;20433;-79
2023/07/05 09:27:49;;;;;;;65.50;4.97;;;19.30;1.00;;;;;;5084915;28;20418;-80
2023/07/05 09:30:25;;;;;;;73.60;5.13;;;19.30;1.00;;;;;;5083560;28;20378;-80
2023/07/05 09:33:15;;;;;;;66.70;3.40;;;19.40;1.00;;;;;;5066250;28;20477;-80
2023/07/05 09:35:44;;;;;;;66.03;3.10;;;19.80;1.00;;;;;;5065731;28;20430;-80
2023/07/05 09:38:22;;;;;;;66.50;4.17;;;20.00;1.00;;;;;;5065890;28;20964;-80
2023/07/05 09:40:52;;;;;;;71.40;2.80;;;20.00;1.00;;;;;;5082605;28;20391;-79
2023/07/05 09:43:35;;;;;;;65.77;2.50;;;20.10;1.00;;;;;;5064646;28;20391;-80
2023/07/05 09:46:04;;;;;;;67.83;2.97;;;20.00;1.00;;;;;;5064822;28;20408;-80
2023/07/05 09:48:34;;;;;;;71.73;2.50;;;19.80;1.00;;;;;;5065330;28;20431;-80
2023/07/05 09:51:03;;;;;;;66.70;2.50;;;19.90;1.00;;;;;;5081789;28;20456;-80
2023/07/05 09:53:51;;;;;;;73.50;4.47;;;20.00;1.00;;;;;;5064520;28;20402;-80
2023/07/05 09:56:27;;;;;;;70.27;2.67;;;20.30;1.00;;;;;;5080605;28;20415;-79
2023/07/05 09:59:12;;;;;;;67.23;2.73;;;20.30;1.00;;;;;;5062852;28;20508;-80
2023/07/05 10:01:41;;;;;;;67.93;2.73;;;20.30;1.00;;;;;;5061392;28;20428;-79
2023/07/05 10:04:07;;;;;;;67.30;2.30;;;20.50;1.00;;;;;;5080479;28;20401;-80
2023/07/05 10:06:36;;;;;;;71.90;2.73;;;20.60;1.00;;;;;;5080041;28;20404;-79
2023/07/05 10:09:16;;;;;;;69.70;2.70;;;20.70;1.00;;;;;;5080064;28;20439;-79
2023/07/05 10:11:44;;;;;;;68.00;2.73;;;20.70;1.00;;;;;;5061699;28;20398;-80
2023/07/05 10:14:15;;;;;;;68.37;2.67;;;21.10;1.00;;;;;;5061591;28;20446;-80
2023/07/05 10:16:50;;;;;;;69.10;2.80;;;21.10;1.00;;;;;;5062218;28;20476;-79
2023/07/05 10:19:30;;;;;;;66.70;2.80;;;21.40;1.00;;;;;;5063733;28;20428;-79
2023/07/05 10:22:13;;;;;;;69.33;2.70;;;21.70;1.00;;;;;;5081602;28;20381;-80
2023/07/05 10:24:48;;;;;;;70.57;3.50;;;21.60;1.00;;;;;;5064682;28;20397;-80
2023/07/05 10:27:41;;;;;;;66.00;2.27;;;21.50;1.00;;;;;;5081057;28;20444;-79
2023/07/05 10:30:15;;;;;;;68.90;2.70;;;21.70;1.00;;;;;;5063172;28;20428;-79
2023/07/05 10:32:42;;;;;;;66.83;2.30;;;21.70;1.00;;;;;;5080984;28;20435;-80
2023/07/05 10:35:26;;;;;;;66.80;2.37;;;21.80;1.00;;;;;;5080582;28;20803;-78
2023/07/05 10:37:53;;;;;;;66.00;2.47;;;21.80;1.00;;;;;;5080958;28;20473;-79
2023/07/05 10:40:21;;;;;;;67.67;2.70;;;21.50;1.00;;;;;;5079185;28;20477;-80
2023/07/05 10:43:01;;;;;;;67.67;2.80;;;21.60;1.00;;;;;;5079028;28;20534;-82
2023/07/05 10:45:34;;;;;;;67.73;2.10;;;21.80;1.00;;;;;;5080292;28;20444;-80
2023/07/05 10:48:01;;;;;;;67.57;2.90;;;22.00;1.00;;;;;;5080457;28;20425;-79
2023/07/05 10:50:32;;;;;;;69.00;2.80;;;22.30;1.00;;;;;;5061776;28;20422;-81
2023/07/05 10:53:10;;;;;;;67.87;2.87;;;22.40;1.00;;;;;;5061574;28;20976;-79
2023/07/05 10:56:02;;;;;;;69.33;2.60;;;22.50;1.00;;;;;;5078291;28;20421;-79
2023/07/05 10:58:45;;;;;;;68.40;2.80;;;22.60;1.00;;;;;;5079553;28;20418;-80
2023/07/05 11:01:28;;;;;;;69.90;3.00;;;22.20;1.00;;;;;;5080663;28;20386;-79
2023/07/05 11:04:00;;;;;;;69.23;2.80;;;21.90;1.00;;;;;;5082663;28;20383;-80
2023/07/05 11:06:27;;;;;;;69.80;3.43;;;22.10;1.00;;;;;;5082529;28;20977;-80
2023/07/05 11:08:53;;;;;;;66.53;2.80;;;22.20;1.00;;;;;;5082736;28;20469;-80
2023/07/05 11:11:27;;;;;;;67.97;2.60;;;22.20;1.00;;;;;;5083414;28;20751;-79
2023/07/05 11:13:54;;;;;;;66.70;2.80;;;22.20;1.00;;;;;;5082713;28;20206;-79
2023/07/05 11:16:31;;;;;;;69.30;2.97;;;22.30;1.00;;;;;;5082999;28;20401;-79
2023/07/05 11:19:04;;;;;;;66.93;2.83;;;22.40;1.00;;;;;;5083097;28;20774;-79
2023/07/05 11:21:37;;;;;;;67.30;2.60;;;22.30;1.00;;;;;;5082392;28;20406;-79
2023/07/05 11:24:06;;;;;;;73.07;2.80;;;22.10;1.00;;;;;;5082938;28;20429;-79
2023/07/05 11:26:39;;;;;;;80.03;3.67;;;22.40;1.00;;;;;;5082540;28;20418;-79
2023/07/05 11:29:27;;;;;;;67.77;3.00;;;22.80;1.00;;;;;;5063709;28;20434;-79
2023/07/05 11:31:52;;;;;;;68.20;3.17;;;23.10;1.00;;;;;;5081957;28;20409;-79
2023/07/05 11:34:21;;;;;;;67.20;3.10;;;23.40;1.00;;;;;;5063685;28;20438;-78
2023/07/05 11:36:48;;;;;;;68.93;3.73;;;23.40;1.00;;;;;;5084270;28;20164;-80
2023/07/05 11:39:39;;;;;;;67.60;3.60;;;23.10;1.00;;;;;;5083547;28;20480;-80
2023/07/05 11:42:16;;;;;;;69.23;3.50;;;22.70;1.00;;;;;;5081919;28;20452;-80
2023/07/05 11:45:09;;;;;;;66.50;3.07;;;22.50;1.00;;;;;;5062946;28;20758;-80
2023/07/05 11:47:35;;;;;;;68.97;3.30;;;22.10;1.00;;;;;;5081826;28;20421;-79
2023/07/05 11:50:27;;;;;;;70.40;4.10;;;22.00;1.00;;;;;;5082747;28;20808;-79
2023/07/05 11:53:06;;;;;;;71.03;2.83;;;22.60;1.00;;;;;;5078665;28;20230;-80
2023/07/05 11:55:34;;;;;;;68.60;2.80;;;23.10;1.00;;;;;;5081981;28;20850;-79
2023/07/05 11:58:24;;;;;;;69.57;3.30;;;23.50;1.00;;;;;;5082302;28;20429;-80
2023/07/05 12:00:58;;;;;;;69.40;3.13;;;23.80;1.00;;;;;;5082800;28;20382;-80
2023/07/05 12:03:28;;;;;;;67.17;3.13;;;23.40;1.00;;;;;;5065187;28;20402;-79
2023/07/05 12:06:06;;;;;;;68.20;4.00;;;23.60;1.00;;;;;;5065618;28;20395;-79
2023/07/05 12:08:45;;;;;;;70.30;3.90;;;23.30;1.00;;;;;;5082969;28;20450;-80
2023/07/05 12:11:14;;;;;;;68.27;3.70;;;23.10;1.00;;;;;;5064483;28;20834;-80
2023/07/05 12:13:41;;;;;;;71.17;3.90;;;22.90;1.00;;;;;;5081962;28;20436;-79
2023/07/05 12:16:14;;;;;;;67.20;3.30;;;22.50;1.00;;;;;;5081199;28;20422;-80
2023/07/05 12:18:41;;;;;;;66.67;2.70;;;22.20;1.00;;;;;;5082444;28;20414;-80
2023/07/05 12:21:07;;;;;;;69.73;3.17;;;22.00;1.00;;;;;;5083266;28;20448;-80
2023/07/05 12:23:35;;;;;;;67.50;2.57;;;21.70;1.00;;;;;;5081239;28;20394;-79
2023/07/05 12:26:05;;;;;;;68.60;2.97;;;21.60;1.00;;;;;;5062856;28;20164;-80
2023/07/05 12:28:32;;;;;;;69.90;3.17;;;21.60;1.00;;;;;;5081203;28;20524;-79
2023/07/05 12:31:11;;;;;;;68.27;3.00;;;21.70;1.00;;;;;;5062936;28;20413;-79
2023/07/05 12:33:38;;;;;;;69.40;3.13;;;21.70;1.00;;;;;;5081925;28;20429;-80
2023/07/05 12:36:16;;;;;;;66.30;2.70;;;21.50;1.00;;;;;;5081113;28;20414;-79
2023/07/05 12:38:44;;;;;;;68.07;3.03;;;21.50;1.00;;;;;;5080830;28;20473;-79
2023/07/05 12:41:28;;;;;;;68.67;2.60;;;21.60;1.00;;;;;;5081024;28;20407;-79
2023/07/05 12:44:07;;;;;;;68.17;3.17;;;21.60;1.00;;;;;;5082022;28;20896;-79
2023/07/05 12:46:34;;;;;;;68.27;2.73;;;21.70;1.00;;;;;;5080652;28;20386;-79
2023/07/05 12:49:24;;;;;;;67.40;3.00;;;21.90;1.00;;;;;;5062559;28;20423;-80
2023/07/05 12:51:53;;;;;;;66.40;2.77;;;22.00;1.00;;;;;;5081184;28;20386;-79
2023/07/05 12:54:19;;;;;;;66.77;2.63;;;22.10;1.00;;;;;;5080535;28;20442;-79
2023/07/05 12:56:46;;;;;;;67.37;3.00;;;22.30;1.00;;;;;;5079639;28;20944;-79
2023/07/05 12:59:28;;;;;;;70.73;2.60;;;22.80;1.00;;;;;;5061106;28;20598;-79